createdAt,value
2019-05-02T00:02:36.874Z,116.33
2019-05-02T00:07:29.290Z,60.25
2019-05-02T00:12:21.748Z,120.40
2019-05-02T00:17:14.673Z,63.15
2019-05-02T00:22:12.223Z,70.78
2019-05-02T00:27:03.504Z,210.70
2019-05-02T00:31:56.016Z,137.40
2019-05-02T00:36:48.345Z,140.33
2019-05-02T00:41:40.786Z,135.70
2019-05-02T00:46:34.998Z,56.07
2019-05-02T00:51:28.137Z,149.63
2019-05-02T00:56:20.495Z,86.57
2019-05-02T01:01:31.144Z,44.00
2019-05-02T01:06:24.155Z,34.93
2019-05-02T01:11:17.342Z,52.83
2019-05-02T01:16:09.724Z,38.90
2019-05-02T01:21:02.804Z,38.57
2019-05-02T01:25:56.230Z,52.63
2019-05-02T01:31:06.680Z,86.20
2019-05-02T01:36:06.307Z,32.43
2019-05-02T01:40:57.740Z,41.07
2019-05-02T01:45:50.866Z,46.90
2019-05-02T01:50:43.179Z,48.03
2019-05-02T01:55:35.911Z,27.03
2019-05-02T02:00:28.247Z,63.13
2019-05-02T02:05:20.655Z,76.37
2019-05-02T02:10:14.973Z,54.47
2019-05-02T02:15:07.284Z,32.20
2019-05-02T02:20:01.330Z,79.80
2019-05-02T02:25:11.859Z,31.53
2019-05-02T02:30:08.921Z,27.57
2019-05-02T02:35:03.393Z,36.87
2019-05-02T02:39:56.496Z,33.57
2019-05-02T02:44:50.759Z,30.77
2019-05-02T02:49:43.011Z,38.40
2019-05-02T02:54:36.445Z,20.10
2019-05-02T02:59:29.544Z,36.03
2019-05-02T03:04:21.843Z,28.27
2019-05-02T03:09:14.078Z,27.53
2019-05-02T03:14:09.643Z,25.33
2019-05-02T03:19:02.215Z,40.63
2019-05-02T03:24:03.367Z,29.47
2019-05-02T03:28:57.649Z,26.67
2019-05-02T03:33:54.696Z,31.63
2019-05-02T03:38:36.870Z,25.03
2019-05-02T03:43:29.355Z,28.83
2019-05-02T03:48:25.723Z,25.57
2019-05-02T03:53:17.823Z,24.17
2019-05-02T03:58:16.594Z,23.03
2019-05-02T04:03:08.710Z,23.73
2019-05-02T04:08:00.944Z,24.07
2019-05-02T04:12:58.358Z,26.30
2019-05-02T04:17:48.332Z,27.00
2019-05-02T04:22:42.895Z,29.70
2019-05-02T04:27:35.955Z,27.47
2019-05-02T04:32:28.837Z,33.60
2019-05-02T04:37:21.278Z,27.37
2019-05-02T04:42:19.499Z,28.90
2019-05-02T04:47:16.982Z,30.23
2019-05-02T04:52:10.369Z,34.30
2019-05-02T04:56:58.991Z,31.57
2019-05-02T05:01:56.911Z,28.63
2019-05-02T05:06:52.640Z,30.83
2019-05-02T05:11:43.226Z,26.83
2019-05-02T05:16:37.302Z,25.95
2019-05-02T05:21:29.580Z,33.77
2019-05-02T05:26:22.346Z,32.70
2019-05-02T05:31:16.435Z,26.90
2019-05-02T05:36:08.868Z,32.75
2019-05-02T05:41:02.945Z,34.40
2019-05-02T05:46:06.104Z,35.13
2019-05-02T05:50:50.018Z,37.65
2019-05-02T05:55:42.397Z,39.95
2019-05-02T06:00:34.668Z,36.05
2019-05-02T06:05:27.604Z,39.90
2019-05-02T06:10:20.270Z,38.10
2019-05-02T06:15:12.950Z,36.85
2019-05-02T06:20:06.791Z,37.73
2019-05-02T06:24:58.866Z,45.30
2019-05-02T06:29:55.815Z,40.45
2019-05-02T06:34:47.546Z,39.53
2019-05-02T06:39:39.661Z,35.73
2019-05-02T06:44:31.853Z,39.98
2019-05-02T06:49:25.984Z,44.30
2019-05-02T06:54:22.710Z,51.85
2019-05-02T06:59:13.191Z,57.80
2019-05-02T07:04:06.136Z,52.27
2019-05-02T07:08:59.712Z,52.98
2019-05-02T07:13:52.016Z,50.55
2019-05-02T07:18:49.626Z,53.75
2019-05-02T07:23:42.246Z,51.90
2019-05-02T07:28:34.482Z,53.65
2019-05-02T07:33:27.129Z,53.60
2019-05-02T07:38:20.126Z,56.00
2019-05-02T07:43:21.109Z,53.08
2019-05-02T07:48:07.363Z,53.28
2019-05-02T07:53:04.525Z,53.10
2019-05-02T07:57:53.738Z,60.33
2019-05-02T08:02:46.358Z,60.28
2019-05-02T08:07:38.748Z,61.88
2019-05-02T08:12:31.146Z,60.52
2019-05-02T08:17:23.532Z,63.45
2019-05-02T08:22:15.844Z,54.98
2019-05-02T08:27:12.671Z,56.68
2019-05-02T08:32:05.130Z,55.03
2019-05-02T08:36:58.804Z,55.58
2019-05-02T08:41:56.342Z,53.30
2019-05-02T08:46:46.243Z,56.30
2019-05-02T08:51:41.577Z,53.40
2019-05-02T08:56:38.207Z,55.43
2019-05-02T09:01:35.194Z,54.48
2019-05-02T09:06:24.595Z,54.00
2019-05-02T09:11:16.982Z,52.50
2019-05-02T09:16:09.558Z,50.67
2019-05-02T09:21:02.170Z,52.08
2019-05-02T09:25:54.673Z,50.45
2019-05-02T09:30:47.310Z,51.08
2019-05-02T09:35:39.544Z,46.63
2019-05-02T09:40:32.175Z,52.48
2019-05-02T09:45:27.791Z,58.15
2019-05-02T09:50:29.444Z,57.50
2019-05-02T09:55:16.806Z,57.38
2019-05-02T10:00:16.929Z,50.80
2019-05-02T10:05:09.439Z,51.95
2019-05-02T10:10:03.144Z,49.80
2019-05-02T10:14:56.053Z,51.68
2019-05-02T10:19:50.358Z,51.00
2019-05-02T10:24:42.979Z,49.93
2019-05-02T10:29:35.240Z,49.08
2019-05-02T10:34:27.619Z,48.28
2019-05-02T10:39:20.064Z,47.17
2019-05-02T10:44:12.977Z,50.35
2019-05-02T10:49:12.380Z,45.92
2019-05-02T10:54:05.402Z,48.20
2019-05-02T10:58:58.044Z,51.25
2019-05-02T11:03:52.117Z,41.33
2019-05-02T11:08:46.042Z,41.98
2019-05-02T11:13:40.294Z,43.63
2019-05-02T11:18:52.736Z,39.08
2019-05-02T11:23:45.250Z,37.75
2019-05-02T11:28:37.593Z,42.45
2019-05-02T11:33:30.162Z,37.65
2019-05-02T11:38:47.231Z,38.38
2019-05-02T11:43:16.533Z,39.13
2019-05-02T11:48:11.966Z,38.67
2019-05-02T11:53:03.036Z,32.60
2019-05-02T11:57:55.922Z,34.75
2019-05-02T12:02:56.296Z,35.63
2019-05-02T12:07:43.763Z,36.75
2019-05-02T12:12:36.555Z,41.68
2019-05-02T12:17:29.632Z,38.90
2019-05-02T12:22:22.660Z,37.20
2019-05-02T12:27:15.042Z,38.60
2019-05-02T12:32:07.849Z,39.15
2019-05-02T12:37:01.765Z,36.90
2019-05-02T12:41:55.110Z,37.08
2019-05-02T12:46:47.818Z,41.80
2019-05-02T12:51:40.119Z,44.90
2019-05-02T12:56:32.632Z,45.12
2019-05-02T13:01:25.052Z,51.45
2019-05-02T13:06:17.410Z,51.37
2019-05-02T13:11:13.905Z,50.40
2019-05-02T13:16:05.531Z,46.00
2019-05-02T13:21:01.731Z,45.23
2019-05-02T13:25:54.971Z,42.10
2019-05-02T13:30:55.959Z,42.48
2019-05-02T13:35:51.862Z,42.27
2019-05-02T13:40:44.724Z,42.98
2019-05-02T13:45:41.960Z,42.88
2019-05-02T13:50:34.489Z,36.08
2019-05-02T13:55:31.675Z,39.13
2019-05-02T14:00:37.609Z,31.33
2019-05-02T14:05:31.777Z,33.98
2019-05-02T14:10:39.097Z,32.23
2019-05-02T14:15:27.731Z,33.88
2019-05-02T14:20:22.395Z,35.28
2019-05-02T14:25:15.278Z,36.17
2019-05-02T14:30:08.922Z,41.60
2019-05-02T14:35:06.171Z,37.55
2019-05-02T14:40:02.199Z,38.45
2019-05-02T14:45:10.729Z,38.45
2019-05-02T14:49:48.682Z,42.50
2019-05-02T14:54:43.726Z,42.10
2019-05-02T14:59:34.735Z,45.75
2019-05-02T15:04:27.270Z,43.85
2019-05-02T15:09:22.499Z,38.28
2019-05-02T15:14:18.390Z,35.03
2019-05-02T15:19:08.309Z,38.48
2019-05-02T15:24:01.702Z,47.03
2019-05-02T15:28:54.196Z,44.55
2019-05-02T15:34:01.533Z,42.98
2019-05-02T15:38:52.655Z,42.17
2019-05-02T15:43:49.089Z,34.75
2019-05-02T15:48:39.023Z,37.53
2019-05-02T15:53:39.003Z,40.75
2019-05-02T15:58:29.791Z,36.60
2019-05-02T16:03:24.012Z,45.12
2019-05-02T16:08:16.170Z,45.00
2019-05-02T16:13:13.446Z,49.42
2019-05-02T16:18:05.240Z,42.70
2019-05-02T16:22:56.276Z,40.10
2019-05-02T16:27:49.074Z,39.78
2019-05-02T16:32:44.255Z,37.08
2019-05-02T16:37:36.983Z,37.83
2019-05-02T16:42:29.320Z,38.23
2019-05-02T16:47:22.092Z,45.98
2019-05-02T16:52:16.144Z,40.88
2019-05-02T16:57:08.927Z,36.63
2019-05-02T17:02:07.650Z,41.98
2019-05-02T17:07:04.197Z,31.52
2019-05-02T17:11:52.424Z,41.68
2019-05-02T17:16:47.195Z,41.13
2019-05-02T17:21:52.734Z,40.43
2019-05-02T17:26:33.704Z,44.27
2019-05-02T17:31:26.044Z,43.83
2019-05-02T17:36:23.363Z,48.92
2019-05-02T17:41:12.271Z,56.40
2019-05-02T17:46:07.579Z,57.65
2019-05-02T17:51:17.459Z,51.92
2019-05-02T17:56:13.116Z,52.93
2019-05-02T18:01:05.964Z,53.90
2019-05-02T18:05:58.399Z,57.62
2019-05-02T18:10:58.075Z,55.92
2019-05-02T18:15:45.783Z,65.55
2019-05-02T18:20:42.635Z,57.75
2019-05-02T18:25:32.346Z,57.98
2019-05-02T18:30:26.875Z,55.95
2019-05-02T18:35:19.161Z,55.98
2019-05-02T18:40:12.330Z,60.88
2019-05-02T18:45:07.954Z,66.37
2019-05-02T18:50:05.968Z,56.18
2019-05-02T18:54:54.024Z,52.65
2019-05-02T18:59:46.380Z,57.38
2019-05-02T19:04:39.829Z,54.45
2019-05-02T19:09:33.158Z,56.98
2019-05-02T19:14:26.423Z,51.50
2019-05-02T19:19:18.141Z,57.20
2019-05-02T19:24:10.319Z,51.37
2019-05-02T19:29:16.977Z,53.25
2019-05-02T19:34:07.278Z,52.10
2019-05-02T19:39:07.883Z,49.80
2019-05-02T19:43:53.681Z,49.35
2019-05-02T19:48:45.763Z,51.55
2019-05-02T19:53:38.203Z,49.80
2019-05-02T19:58:32.040Z,54.63
2019-05-02T20:03:26.164Z,59.25
2019-05-02T20:08:21.446Z,55.90
2019-05-02T20:13:13.339Z,50.83
2019-05-02T20:18:05.388Z,53.13
2019-05-02T20:22:57.474Z,51.95
2019-05-02T20:27:49.643Z,59.50
2019-05-02T20:32:42.724Z,55.80
2019-05-02T20:37:35.109Z,54.70
2019-05-02T20:42:27.429Z,85.07
2019-05-02T20:47:22.672Z,36.63
2019-05-02T20:52:15.196Z,33.30
2019-05-02T20:57:07.625Z,30.92
2019-05-02T21:02:01.589Z,28.65
2019-05-02T21:07:07.142Z,27.05
2019-05-02T21:12:02.027Z,32.08
2019-05-02T21:16:54.585Z,25.68
2019-05-02T21:21:47.294Z,24.05
2019-05-02T21:26:41.970Z,26.80
2019-05-02T21:31:34.370Z,23.02
2019-05-02T21:36:26.634Z,22.22
2019-05-02T21:41:19.777Z,24.05
2019-05-02T21:46:12.119Z,23.18
2019-05-02T21:51:12.249Z,25.08
2019-05-02T21:56:09.941Z,31.48
2019-05-02T22:01:07.196Z,21.68
2019-05-02T22:05:59.429Z,21.80
2019-05-02T22:10:52.191Z,24.60
2019-05-02T22:15:44.034Z,22.42
2019-05-02T22:20:36.358Z,18.87
2019-05-02T22:25:28.704Z,18.92
2019-05-02T22:30:21.929Z,19.82
2019-05-02T22:35:14.782Z,20.68
2019-05-02T22:40:09.491Z,17.65
2019-05-02T22:45:04.487Z,17.27
2019-05-02T22:49:56.111Z,16.87
2019-05-02T22:54:48.319Z,18.98
2019-05-02T22:59:42.294Z,19.35
2019-05-02T23:04:35.112Z,15.13
2019-05-02T23:09:28.072Z,18.37
2019-05-02T23:14:22.096Z,19.23
2019-05-02T23:19:14.561Z,22.67
2019-05-02T23:24:08.815Z,25.43
2019-05-02T23:29:02.896Z,21.15
2019-05-02T23:33:58.422Z,19.15
2019-05-02T23:38:52.224Z,16.20
2019-05-02T23:43:44.661Z,18.40
2019-05-02T23:48:37.346Z,18.80
2019-05-02T23:53:31.572Z,15.70
2019-05-02T23:58:24.087Z,16.27
